^^
Meteo Knjazevac Station Historical Data
Daily Summary for July 19, 2021 Units:  Metric    English   Both
Daily Weekly Monthly Yearly Custom
  High: Low: Average:
Temperature: 14.1 °C 2.7 °C 7.2 °C
Dew Point: 10 °C 2.5 °C 6.1 °C
Humidity: 99% 75% 93%
Wind Speed: 4.8km/h 0km/h 1.8km/h
Wind Gust: 12.9km/h - -
Wind- - West
Pressure: 1030.4 hPa 1028.7 hPa -
Precipitation: 0 mm    
Historical Graphs
 
 
Tabular Data for July 19, 2021
Time Temperature Dew Point Pressure Wind Wind Speed Wind Gust Humidity Rainfall Rate (Hourly) solar Conditions
00:00 5.8 °C 5.2 °C 1028.7 hPa Calm   4.8 km/h 96% 0 mm 0 W/m2
00:10 5.7 °C 5.4 °C 1028.7 hPa Calm   6.4 km/h 98% 0 mm 0 W/m2
00:20 5.6 °C 5.3 °C 1028.7 hPa Calm   3.2 km/h 98% 0 mm 0 W/m2
00:30 5.5 °C 5.2 °C 1028.7 hPa Calm   4.8 km/h 98% 0 mm 0 W/m2
00:40 5.3 °C 4.7 °C 1028.7 hPa Calm   3.2 km/h 96% 0 mm 0 W/m2
00:50 5.2 °C 4.9 °C 1028.7 hPa NW 1.6 km/h 3.2 km/h 98% 0 mm 0 W/m2
01:00 5.1 °C 4.8 °C 1028.7 hPa Calm   3.2 km/h 98% 0 mm 0 W/m2
01:10 5.1 °C 4.8 °C 1028.7 hPa NNW 1.6 km/h 4.8 km/h 98% 0 mm 0 W/m2
01:20 5 °C 4.7 °C 1029 hPa Calm   4.8 km/h 98% 0 mm 0 W/m2
01:30 4.9 °C 4.6 °C 1029 hPa West 1.6 km/h 4.8 km/h 98% 0 mm 0 W/m2
01:40 4.9 °C 4.6 °C 1029 hPa Calm   3.2 km/h 98% 0 mm 0 W/m2
01:50 4.7 °C 4.4 °C 1029 hPa WNW 1.6 km/h 4.8 km/h 98% 0 mm 0 W/m2
02:00 4.5 °C 4.2 °C 1029 hPa NW 1.6 km/h 4.8 km/h 98% 0 mm 0 W/m2
02:10 4.3 °C 4 °C 1029 hPa WNW 3.2 km/h 4.8 km/h 98% 0 mm 0 W/m2
02:20 4.1 °C 3.8 °C 1029 hPa West 1.6 km/h 4.8 km/h 98% 0 mm 0 W/m2
02:30 3.9 °C 3.6 °C 1029 hPa West 3.2 km/h 6.4 km/h 98% 0 mm 0 W/m2
02:40 3.9 °C 3.7 °C 1029 hPa Calm   4.8 km/h 99% 0 mm 0 W/m2
02:50 3.8 °C 3.7 °C 1029 hPa NW 1.6 km/h 4.8 km/h 99% 0 mm 0 W/m2
03:00 3.6 °C 3.4 °C 1028.7 hPa NW 1.6 km/h 4.8 km/h 99% 0 mm 0 W/m2
03:10 3.6 °C 3.4 °C 1028.7 hPa Calm   3.2 km/h 99% 0 mm 0 W/m2
03:20 3.4 °C 3.3 °C 1028.7 hPa NW 1.6 km/h 4.8 km/h 99% 0 mm 0 W/m2
03:30 3.3 °C 3 °C 1028.7 hPa WNW 3.2 km/h 8 km/h 98% 0 mm 0 W/m2
03:40 3.1 °C 2.8 °C 1029 hPa WNW 1.6 km/h 4.8 km/h 98% 0 mm 0 W/m2
03:50 2.9 °C 2.6 °C 1029 hPa WNW 1.6 km/h 4.8 km/h 98% 0 mm 0 W/m2
04:00 2.8 °C 2.5 °C 1028.7 hPa WNW 1.6 km/h 6.4 km/h 98% 0 mm 0 W/m2
04:10 2.7 °C 2.6 °C 1029 hPa NW 1.6 km/h 4.8 km/h 99% 0 mm 0 W/m2
04:20 2.7 °C 2.6 °C 1029 hPa West 3.2 km/h 4.8 km/h 99% 0 mm 0 W/m2
04:30 2.7 °C 2.6 °C 1029 hPa NNW 1.6 km/h 4.8 km/h 99% 0 mm 0 W/m2
04:40 2.8 °C 2.7 °C 1029 hPa West 1.6 km/h 3.2 km/h 99% 0 mm 0 W/m2
04:50 2.7 °C 2.6 °C 1029 hPa Calm   3.2 km/h 99% 0 mm 0 W/m2
05:00 2.7 °C 2.6 °C 1029 hPa WNW 1.6 km/h 8 km/h 99% 0 mm 0 W/m2
05:10 2.7 °C 2.6 °C 1029 hPa West 3.2 km/h 8 km/h 99% 0 mm 0 W/m2
05:20 2.7 °C 2.6 °C 1029 hPa West 3.2 km/h 6.4 km/h 99% 0 mm 0 W/m2
05:30 2.8 °C 2.7 °C 1029 hPa WNW 3.2 km/h 8 km/h 99% 0 mm 0 W/m2
05:40 2.9 °C 2.8 °C 1029.3 hPa NW 1.6 km/h 4.8 km/h 99% 0 mm 0 W/m2
05:50 3 °C 2.9 °C 1029.3 hPa WNW 1.6 km/h 6.4 km/h 99% 0 mm 0 W/m2
06:00 3.2 °C 3.1 °C 1029.3 hPa WNW 3.2 km/h 8 km/h 99% 0 mm 0 W/m2
06:10 3.3 °C 3.2 °C 1029.3 hPa West 3.2 km/h 8 km/h 99% 0 mm 0 W/m2
06:20 3.4 °C 3.3 °C 1029.7 hPa WNW 1.6 km/h 4.8 km/h 99% 0 mm 0 W/m2
06:30 3.4 °C 3.3 °C 1029.7 hPa Calm   4.8 km/h 99% 0 mm 0 W/m2
06:40 3.6 °C 3.4 °C 1029.7 hPa West 3.2 km/h 4.8 km/h 99% 0 mm 0 W/m2
06:50 3.7 °C 3.6 °C 1029.7 hPa West 1.6 km/h 3.2 km/h 99% 0 mm 2 W/m2
07:00 3.9 °C 3.8 °C 1029.7 hPa WNW 3.2 km/h 6.4 km/h 99% 0 mm 5 W/m2
07:10 4.1 °C 3.9 °C 1029.7 hPa NNW 1.6 km/h 3.2 km/h 99% 0 mm 8 W/m2
07:20 4.2 °C 4.1 °C 1029.7 hPa West 1.6 km/h 4.8 km/h 99% 0 mm 14 W/m2
07:30 4.3 °C 4.2 °C 1029.7 hPa West 3.2 km/h 4.8 km/h 99% 0 mm 20 W/m2
07:40 4.5 °C 4.3 °C 1030 hPa WNW 1.6 km/h 4.8 km/h 99% 0 mm 29 W/m2
07:50 4.7 °C 4.6 °C 1030 hPa WNW 1.6 km/h 6.4 km/h 99% 0 mm 41 W/m2
08:00 5 °C 4.8 °C 1030 hPa West 1.6 km/h 6.4 km/h 99% 0 mm 51 W/m2
08:10 5.1 °C 5 °C 1030 hPa West 3.2 km/h 3.2 km/h 99% 0 mm 52 W/m2
08:20 5.3 °C 5.2 °C 1030.4 hPa WNW 3.2 km/h 6.4 km/h 99% 0 mm 51 W/m2
08:30 5.5 °C 5.4 °C 1030.4 hPa Calm   3.2 km/h 99% 0 mm 56 W/m2
08:40 5.8 °C 5.7 °C 1030.4 hPa West 1.6 km/h 3.2 km/h 99% 0 mm 46 W/m2
08:50 6 °C 5.8 °C 1030.4 hPa WNW 1.6 km/h 3.2 km/h 99% 0 mm 71 W/m2
09:00 6.2 °C 6.1 °C 1030.4 hPa WSW 1.6 km/h 3.2 km/h 99% 0 mm 84 W/m2
09:10 6.3 °C 6.2 °C 1030.4 hPa SW 1.6 km/h 4.8 km/h 99% 0 mm 85 W/m2
09:20 6.5 °C 6.3 °C 1030.4 hPa Calm   1.6 km/h 99% 0 mm 100 W/m2
09:30 6.8 °C 6.7 °C 1030.4 hPa Calm   3.2 km/h 99% 0 mm 127 W/m2
09:40 7.2 °C 7.1 °C 1030.4 hPa Calm   1.6 km/h 99% 0 mm 146 W/m2
09:50 7.6 °C 7.5 °C 1030.4 hPa West 1.6 km/h 3.2 km/h 99% 0 mm 149 W/m2
10:00 8 °C 7.8 °C 1030.4 hPa Calm   3.2 km/h 99% 0 mm 168 W/m2
10:10 8.3 °C 8.2 °C 1030.4 hPa Calm   3.2 km/h 99% 0 mm 167 W/m2
10:20 8.7 °C 8.6 °C 1030.4 hPa Calm   3.2 km/h 99% 0 mm 164 W/m2
10:30 9 °C 8.4 °C 1030.4 hPa Calm   3.2 km/h 96% 0 mm 192 W/m2
10:40 9.3 °C 8.7 °C 1030.4 hPa Calm   3.2 km/h 96% 0 mm 192 W/m2
10:50 9.7 °C 8.9 °C 1030.4 hPa WNW 1.6 km/h 1.6 km/h 95% 0 mm 197 W/m2
11:00 10.1 °C 9.4 °C 1030.4 hPa Calm   3.2 km/h 95% 0 mm 216 W/m2
11:10 10.6 °C 9.4 °C 1030.4 hPa SSW 1.6 km/h 3.2 km/h 93% 0 mm 232 W/m2
11:20 11 °C 9.4 °C 1030.4 hPa Calm   4.8 km/h 90% 0 mm 252 W/m2
11:30 11.3 °C 9.6 °C 1030.4 hPa Calm   3.2 km/h 89% 0 mm 216 W/m2
11:40 11.6 °C 9.7 °C 1030.4 hPa SW 1.6 km/h 4.8 km/h 88% 0 mm 219 W/m2
11:50 11.9 °C 9.7 °C 1030.4 hPa SW 1.6 km/h 6.4 km/h 86% 0 mm 208 W/m2
12:00 12.2 °C 9.6 °C 1030.4 hPa SW 4.8 km/h 12.9 km/h 84% 0 mm 196 W/m2
12:10 12.4 °C 9.8 °C 1030.4 hPa WSW 4.8 km/h 9.7 km/h 84% 0 mm 173 W/m2
12:20 12.5 °C 9.7 °C 1030.4 hPa SW 4.8 km/h 9.7 km/h 83% 0 mm 157 W/m2
12:30 12.6 °C 9.8 °C 1030 hPa SW 4.8 km/h 8 km/h 83% 0 mm 166 W/m2
12:40 12.7 °C 9.5 °C 1030 hPa SW 4.8 km/h 11.3 km/h 81% 0 mm 168 W/m2
12:50 12.7 °C 9.6 °C 1030 hPa SW 4.8 km/h 9.7 km/h 81% 0 mm 187 W/m2
13:00 12.9 °C 9.6 °C 1030 hPa SW 4.8 km/h 9.7 km/h 80% 0 mm 197 W/m2
13:10 13 °C 9.6 °C 1029.7 hPa SW 3.2 km/h 8 km/h 80% 0 mm 205 W/m2
13:20 13.2 °C 9.8 °C 1029.7 hPa SW 3.2 km/h 8 km/h 80% 0 mm 213 W/m2
13:30 13.4 °C 10 °C 1029.7 hPa SW 4.8 km/h 8 km/h 80% 0 mm 216 W/m2
13:40 13.5 °C 9.9 °C 1029.7 hPa SSW 4.8 km/h 9.7 km/h 79% 0 mm 235 W/m2
13:50 13.6 °C 9.8 °C 1029.3 hPa SSW 1.6 km/h 8 km/h 78% 0 mm 236 W/m2
14:00 13.7 °C 9.7 °C 1029.3 hPa SSW 3.2 km/h 8 km/h 77% 0 mm 216 W/m2
14:10 13.9 °C 9.9 °C 1029.3 hPa SSW 3.2 km/h 4.8 km/h 77% 0 mm 196 W/m2
14:20 14 °C 9.6 °C 1029.3 hPa SW 3.2 km/h 6.4 km/h 75% 0 mm 189 W/m2
14:30 14.1 °C 9.7 °C 1029.3 hPa WSW 3.2 km/h 6.4 km/h 75% 0 mm 142 W/m2
14:40 14.1 °C 9.7 °C 1029.3 hPa WSW 1.6 km/h 4.8 km/h 75% 0 mm 120 W/m2
14:50 14 °C 9.6 °C 1029.3 hPa NNW 3.2 km/h 4.8 km/h 75% 0 mm 101 W/m2
15:00 14 °C 9.8 °C 1029.3 hPa NNW 1.6 km/h 3.2 km/h 76% 0 mm 106 W/m2
15:10 14 °C 9.8 °C 1029.3 hPa Calm   3.2 km/h 76% 0 mm 108 W/m2
15:20 14 °C 9.8 °C 1029.3 hPa SW 1.6 km/h 3.2 km/h 76% 0 mm 93 W/m2
15:30 13.9 °C 9.6 °C 1029.3 hPa Calm   4.8 km/h 75% 0 mm 95 W/m2
Knjazevac, Serbia
Compliments of Weather Underground - 2 mb